sensor_id;sensor_type;location;lat;lon;timestamp;temperature;humidity
71649;SHT31;70112;45.624;11.760;2023-08-17T00:01:26;25.12;68.45
71649;SHT31;70112;45.624;11.760;2023-08-17T00:03:52;25.09;68.64
71649;SHT31;70112;45.624;11.760;2023-08-17T00:06:17;25.06;68.97
71649;SHT31;70112;45.624;11.760;2023-08-17T00:08:43;25.02;69.13
71649;SHT31;70112;45.624;11.760;2023-08-17T00:11:09;24.98;69.19
71649;SHT31;70112;45.624;11.760;2023-08-17T00:13:35;24.93;69.29
71649;SHT31;70112;45.624;11.760;2023-08-17T00:16:00;24.88;69.51
71649;SHT31;70112;45.624;11.760;2023-08-17T00:18:26;24.83;69.59
71649;SHT31;70112;45.624;11.760;2023-08-17T00:20:52;24.78;69.77
71649;SHT31;70112;45.624;11.760;2023-08-17T00:23:18;24.75;69.92
71649;SHT31;70112;45.624;11.760;2023-08-17T00:25:45;24.71;69.87
71649;SHT31;70112;45.624;11.760;2023-08-17T00:28:12;24.67;69.96
71649;SHT31;70112;45.624;11.760;2023-08-17T00:30:39;24.63;70.17
71649;SHT31;70112;45.624;11.760;2023-08-17T00:33:05;24.62;70.24
71649;SHT31;70112;45.624;11.760;2023-08-17T00:35:31;24.61;70.32
71649;SHT31;70112;45.624;11.760;2023-08-17T00:37:57;24.59;70.50
71649;SHT31;70112;45.624;11.760;2023-08-17T00:40:24;24.57;70.55
71649;SHT31;70112;45.624;11.760;2023-08-17T00:42:50;24.57;70.61
71649;SHT31;70112;45.624;11.760;2023-08-17T00:45:17;24.59;70.68
71649;SHT31;70112;45.624;11.760;2023-08-17T00:47:44;24.61;70.83
71649;SHT31;70112;45.624;11.760;2023-08-17T00:50:10;24.62;70.83
71649;SHT31;70112;45.624;11.760;2023-08-17T00:52:37;24.63;70.73
71649;SHT31;70112;45.624;11.760;2023-08-17T00:55:03;24.64;70.74
71649;SHT31;70112;45.624;11.760;2023-08-17T00:57:31;24.59;70.69
71649;SHT31;70112;45.624;11.760;2023-08-17T00:59:58;24.58;70.71
71649;SHT31;70112;45.624;11.760;2023-08-17T01:02:25;24.54;70.84
71649;SHT31;70112;45.624;11.760;2023-08-17T01:04:50;24.51;71.16
71649;SHT31;70112;45.624;11.760;2023-08-17T01:07:17;24.49;71.27
71649;SHT31;70112;45.624;11.760;2023-08-17T01:09:42;24.47;71.25
71649;SHT31;70112;45.624;11.760;2023-08-17T01:12:16;24.47;71.16
71649;SHT31;70112;45.624;11.760;2023-08-17T01:14:55;24.49;71.10
71649;SHT31;70112;45.624;11.760;2023-08-17T01:17:29;24.52;71.10
71649;SHT31;70112;45.624;11.760;2023-08-17T01:20:13;24.54;71.22
71649;SHT31;70112;45.624;11.760;2023-08-17T01:22:41;24.55;71.39
71649;SHT31;70112;45.624;11.760;2023-08-17T01:25:09;24.52;71.38
71649;SHT31;70112;45.624;11.760;2023-08-17T01:27:39;24.48;71.30
71649;SHT31;70112;45.624;11.760;2023-08-17T01:30:09;24.44;71.30
71649;SHT31;70112;45.624;11.760;2023-08-17T01:32:46;24.40;71.48
71649;SHT31;70112;45.624;11.760;2023-08-17T01:38:04;24.37;71.50
71649;SHT31;70112;45.624;11.760;2023-08-17T01:40:35;24.39;71.54
71649;SHT31;70112;45.624;11.760;2023-08-17T01:43:01;24.39;71.66
71649;SHT31;70112;45.624;11.760;2023-08-17T01:45:28;24.37;71.76
71649;SHT31;70112;45.624;11.760;2023-08-17T01:47:54;24.35;71.54
71649;SHT31;70112;45.624;11.760;2023-08-17T01:50:21;24.27;71.55
71649;SHT31;70112;45.624;11.760;2023-08-17T01:52:46;24.23;71.66
71649;SHT31;70112;45.624;11.760;2023-08-17T01:55:12;24.22;71.88
71649;SHT31;70112;45.624;11.760;2023-08-17T01:57:37;24.20;72.00
71649;SHT31;70112;45.624;11.760;2023-08-17T02:00:04;24.21;71.97
71649;SHT31;70112;45.624;11.760;2023-08-17T02:02:30;24.20;72.05
71649;SHT31;70112;45.624;11.760;2023-08-17T02:04:56;24.19;72.20
71649;SHT31;70112;45.624;11.760;2023-08-17T02:07:22;24.20;72.20
71649;SHT31;70112;45.624;11.760;2023-08-17T02:09:48;24.21;72.15
71649;SHT31;70112;45.624;11.760;2023-08-17T02:12:13;24.18;72.25
71649;SHT31;70112;45.624;11.760;2023-08-17T02:14:39;24.16;72.40
71649;SHT31;70112;45.624;11.760;2023-08-17T02:17:04;24.15;72.47
71649;SHT31;70112;45.624;11.760;2023-08-17T02:19:31;24.13;72.45
71649;SHT31;70112;45.624;11.760;2023-08-17T02:21:58;24.14;72.46
71649;SHT31;70112;45.624;11.760;2023-08-17T02:24:24;24.16;72.52
71649;SHT31;70112;45.624;11.760;2023-08-17T02:26:50;24.15;72.54
71649;SHT31;70112;45.624;11.760;2023-08-17T02:29:16;24.12;72.67
71649;SHT31;70112;45.624;11.760;2023-08-17T02:31:41;24.10;72.70
71649;SHT31;70112;45.624;11.760;2023-08-17T02:34:07;24.11;72.69
71649;SHT31;70112;45.624;11.760;2023-08-17T02:36:33;24.10;72.74
71649;SHT31;70112;45.624;11.760;2023-08-17T02:38:58;24.09;72.94
71649;SHT31;70112;45.624;11.760;2023-08-17T02:41:24;24.10;72.99
71649;SHT31;70112;45.624;11.760;2023-08-17T02:43:49;24.11;73.05
71649;SHT31;70112;45.624;11.760;2023-08-17T02:46:15;24.13;73.03
71649;SHT31;70112;45.624;11.760;2023-08-17T02:48:40;24.12;73.00
71649;SHT31;70112;45.624;11.760;2023-08-17T02:51:06;24.11;72.99
71649;SHT31;70112;45.624;11.760;2023-08-17T02:53:32;24.11;73.02
71649;SHT31;70112;45.624;11.760;2023-08-17T02:55:57;24.10;73.16
71649;SHT31;70112;45.624;11.760;2023-08-17T02:58:23;24.09;73.10
71649;SHT31;70112;45.624;11.760;2023-08-17T03:00:50;24.08;73.06
71649;SHT31;70112;45.624;11.760;2023-08-17T03:03:17;24.10;72.93
71649;SHT31;70112;45.624;11.760;2023-08-17T03:05:42;24.12;72.91
71649;SHT31;70112;45.624;11.760;2023-08-17T03:08:08;24.12;72.68
71649;SHT31;70112;45.624;11.760;2023-08-17T03:10:33;24.10;72.51
71649;SHT31;70112;45.624;11.760;2023-08-17T03:12:59;24.10;72.58
71649;SHT31;70112;45.624;11.760;2023-08-17T03:15:24;24.12;72.28
71649;SHT31;70112;45.624;11.760;2023-08-17T03:17:50;24.14;72.13
71649;SHT31;70112;45.624;11.760;2023-08-17T03:20:15;24.13;72.22
71649;SHT31;70112;45.624;11.760;2023-08-17T03:22:41;24.10;72.31
71649;SHT31;70112;45.624;11.760;2023-08-17T03:25:07;24.09;72.30
71649;SHT31;70112;45.624;11.760;2023-08-17T03:27:33;24.08;72.27
71649;SHT31;70112;45.624;11.760;2023-08-17T03:29:59;24.09;72.13
71649;SHT31;70112;45.624;11.760;2023-08-17T03:32:25;24.08;72.07
71649;SHT31;70112;45.624;11.760;2023-08-17T03:34:50;24.09;72.00
71649;SHT31;70112;45.624;11.760;2023-08-17T03:37:16;24.08;71.90
71649;SHT31;70112;45.624;11.760;2023-08-17T03:39:41;24.06;71.92
71649;SHT31;70112;45.624;11.760;2023-08-17T03:42:07;24.03;71.90
71649;SHT31;70112;45.624;11.760;2023-08-17T03:44:32;24.00;71.97
71649;SHT31;70112;45.624;11.760;2023-08-17T03:46:58;23.99;72.00
71649;SHT31;70112;45.624;11.760;2023-08-17T03:49:23;23.98;72.03
71649;SHT31;70112;45.624;11.760;2023-08-17T03:51:49;23.97;72.09
71649;SHT31;70112;45.624;11.760;2023-08-17T03:54:14;23.95;71.95
71649;SHT31;70112;45.624;11.760;2023-08-17T03:56:42;23.93;72.02
71649;SHT31;70112;45.624;11.760;2023-08-17T03:59:08;23.91;72.04
71649;SHT31;70112;45.624;11.760;2023-08-17T04:01:33;23.89;72.06
71649;SHT31;70112;45.624;11.760;2023-08-17T04:03:59;23.89;71.98
71649;SHT31;70112;45.624;11.760;2023-08-17T04:06:24;23.90;71.88
71649;SHT31;70112;45.624;11.760;2023-08-17T04:08:50;23.92;71.85
71649;SHT31;70112;45.624;11.760;2023-08-17T04:11:15;23.94;71.96
71649;SHT31;70112;45.624;11.760;2023-08-17T04:13:41;23.94;72.09
71649;SHT31;70112;45.624;11.760;2023-08-17T04:16:06;23.91;71.98
71649;SHT31;70112;45.624;11.760;2023-08-17T04:18:32;23.89;72.12
71649;SHT31;70112;45.624;11.760;2023-08-17T04:20:57;23.86;72.36
71649;SHT31;70112;45.624;11.760;2023-08-17T04:23:23;23.84;72.55
71649;SHT31;70112;45.624;11.760;2023-08-17T04:25:48;23.81;72.52
71649;SHT31;70112;45.624;11.760;2023-08-17T04:28:14;23.79;72.45
71649;SHT31;70112;45.624;11.760;2023-08-17T04:30:40;23.76;72.24
71649;SHT31;70112;45.624;11.760;2023-08-17T04:33:05;23.77;72.36
71649;SHT31;70112;45.624;11.760;2023-08-17T04:35:32;23.77;72.19
71649;SHT31;70112;45.624;11.760;2023-08-17T04:37:58;23.79;72.02
71649;SHT31;70112;45.624;11.760;2023-08-17T04:40:24;23.80;72.06
71649;SHT31;70112;45.624;11.760;2023-08-17T04:42:49;23.81;72.07
71649;SHT31;70112;45.624;11.760;2023-08-17T04:45:15;23.82;72.14
71649;SHT31;70112;45.624;11.760;2023-08-17T04:47:41;23.82;72.00
71649;SHT31;70112;45.624;11.760;2023-08-17T04:50:06;23.81;71.93
71649;SHT31;70112;45.624;11.760;2023-08-17T04:52:32;23.79;71.91
71649;SHT31;70112;45.624;11.760;2023-08-17T04:54:58;23.77;71.98
71649;SHT31;70112;45.624;11.760;2023-08-17T04:57:23;23.76;72.23
71649;SHT31;70112;45.624;11.760;2023-08-17T04:59:49;23.75;72.04
71649;SHT31;70112;45.624;11.760;2023-08-17T05:02:15;23.74;72.05
71649;SHT31;70112;45.624;11.760;2023-08-17T05:04:40;23.73;72.23
71649;SHT31;70112;45.624;11.760;2023-08-17T05:07:07;23.72;72.32
71649;SHT31;70112;45.624;11.760;2023-08-17T05:09:33;23.73;72.40
71649;SHT31;70112;45.624;11.760;2023-08-17T05:11:58;23.76;72.39
71649;SHT31;70112;45.624;11.760;2023-08-17T05:14:24;23.79;72.36
71649;SHT31;70112;45.624;11.760;2023-08-17T05:16:49;23.81;72.50
71649;SHT31;70112;45.624;11.760;2023-08-17T05:19:15;23.83;72.50
71649;SHT31;70112;45.624;11.760;2023-08-17T05:21:41;23.87;72.50
71649;SHT31;70112;45.624;11.760;2023-08-17T05:24:06;23.91;72.54
71649;SHT31;70112;45.624;11.760;2023-08-17T05:26:32;23.98;72.50
71649;SHT31;70112;45.624;11.760;2023-08-17T05:28:58;24.04;72.56
71649;SHT31;70112;45.624;11.760;2023-08-17T05:31:24;24.11;72.51
71649;SHT31;70112;45.624;11.760;2023-08-17T05:33:50;24.19;72.43
71649;SHT31;70112;45.624;11.760;2023-08-17T05:36:15;24.27;72.40
71649;SHT31;70112;45.624;11.760;2023-08-17T05:38:40;24.33;72.38
71649;SHT31;70112;45.624;11.760;2023-08-17T05:41:06;24.40;72.29
71649;SHT31;70112;45.624;11.760;2023-08-17T05:43:32;24.47;72.11
71649;SHT31;70112;45.624;11.760;2023-08-17T05:45:58;24.54;71.96
71649;SHT31;70112;45.624;11.760;2023-08-17T05:48:24;24.59;71.79
71649;SHT31;70112;45.624;11.760;2023-08-17T05:50:50;24.64;71.60
71649;SHT31;70112;45.624;11.760;2023-08-17T05:53:15;24.69;71.56
71649;SHT31;70112;45.624;11.760;2023-08-17T05:55:41;24.74;71.53
71649;SHT31;70112;45.624;11.760;2023-08-17T05:58:06;24.79;71.60
71649;SHT31;70112;45.624;11.760;2023-08-17T06:00:32;24.83;71.59
71649;SHT31;70112;45.624;11.760;2023-08-17T06:02:57;24.88;71.67
71649;SHT31;70112;45.624;11.760;2023-08-17T06:05:29;24.94;71.79
71649;SHT31;70112;45.624;11.760;2023-08-17T06:07:58;25.00;71.77
71649;SHT31;70112;45.624;11.760;2023-08-17T06:10:24;25.05;71.71
71649;SHT31;70112;45.624;11.760;2023-08-17T06:12:54;25.11;71.52
71649;SHT31;70112;45.624;11.760;2023-08-17T06:15:21;25.17;71.38
71649;SHT31;70112;45.624;11.760;2023-08-17T06:17:47;25.21;71.30
71649;SHT31;70112;45.624;11.760;2023-08-17T06:20:16;25.28;71.27
71649;SHT31;70112;45.624;11.760;2023-08-17T06:22:43;25.33;71.23
71649;SHT31;70112;45.624;11.760;2023-08-17T06:25:08;25.38;71.29
71649;SHT31;70112;45.624;11.760;2023-08-17T06:27:34;25.42;71.17
71649;SHT31;70112;45.624;11.760;2023-08-17T06:30:04;25.47;71.02
71649;SHT31;70112;45.624;11.760;2023-08-17T06:32:30;25.52;70.79
71649;SHT31;70112;45.624;11.760;2023-08-17T06:34:56;25.57;70.57
71649;SHT31;70112;45.624;11.760;2023-08-17T06:37:22;25.60;70.91
71649;SHT31;70112;45.624;11.760;2023-08-17T06:39:47;25.65;70.82
71649;SHT31;70112;45.624;11.760;2023-08-17T06:42:13;25.68;70.81
71649;SHT31;70112;45.624;11.760;2023-08-17T06:44:38;25.72;70.78
71649;SHT31;70112;45.624;11.760;2023-08-17T06:47:04;25.78;70.48
71649;SHT31;70112;45.624;11.760;2023-08-17T06:49:30;25.82;70.11
71649;SHT31;70112;45.624;11.760;2023-08-17T06:51:56;25.86;69.68
71649;SHT31;70112;45.624;11.760;2023-08-17T06:54:21;25.91;69.28
71649;SHT31;70112;45.624;11.760;2023-08-17T06:56:47;25.97;69.19
71649;SHT31;70112;45.624;11.760;2023-08-17T06:59:12;26.02;69.20
71649;SHT31;70112;45.624;11.760;2023-08-17T07:01:38;26.07;69.06
71649;SHT31;70112;45.624;11.760;2023-08-17T07:04:03;26.11;68.50
71649;SHT31;70112;45.624;11.760;2023-08-17T07:06:29;26.16;67.85
71649;SHT31;70112;45.624;11.760;2023-08-17T07:08:55;26.20;67.39
71649;SHT31;70112;45.624;11.760;2023-08-17T07:11:21;26.26;66.96
71649;SHT31;70112;45.624;11.760;2023-08-17T07:13:47;26.30;66.53
71649;SHT31;70112;45.624;11.760;2023-08-17T07:16:13;26.35;66.51
71649;SHT31;70112;45.624;11.760;2023-08-17T07:18:39;26.37;66.66
71649;SHT31;70112;45.624;11.760;2023-08-17T07:21:05;26.41;66.20
71649;SHT31;70112;45.624;11.760;2023-08-17T07:23:31;26.46;65.99
71649;SHT31;70112;45.624;11.760;2023-08-17T07:25:56;26.52;65.49
71649;SHT31;70112;45.624;11.760;2023-08-17T07:28:22;26.59;65.09
71649;SHT31;70112;45.624;11.760;2023-08-17T07:30:47;26.66;64.46
71649;SHT31;70112;45.624;11.760;2023-08-17T07:33:13;26.72;64.21
71649;SHT31;70112;45.624;11.760;2023-08-17T07:35:38;26.77;63.57
71649;SHT31;70112;45.624;11.760;2023-08-17T07:38:04;26.82;63.49
71649;SHT31;70112;45.624;11.760;2023-08-17T07:40:30;26.88;63.12
71649;SHT31;70112;45.624;11.760;2023-08-17T07:42:56;26.93;63.03
71649;SHT31;70112;45.624;11.760;2023-08-17T07:45:21;26.97;62.54
71649;SHT31;70112;45.624;11.760;2023-08-17T07:47:47;27.01;62.31
71649;SHT31;70112;45.624;11.760;2023-08-17T07:50:12;27.06;62.55
71649;SHT31;70112;45.624;11.760;2023-08-17T07:52:38;27.10;63.02
71649;SHT31;70112;45.624;11.760;2023-08-17T07:55:03;27.12;63.30
71649;SHT31;70112;45.624;11.760;2023-08-17T07:57:30;27.14;63.55
71649;SHT31;70112;45.624;11.760;2023-08-17T07:59:55;27.19;63.95
71649;SHT31;70112;45.624;11.760;2023-08-17T08:02:21;27.22;63.96
71649;SHT31;70112;45.624;11.760;2023-08-17T08:04:46;27.27;64.11
71649;SHT31;70112;45.624;11.760;2023-08-17T08:07:12;27.33;64.09
71649;SHT31;70112;45.624;11.760;2023-08-17T08:09:38;27.40;63.41
71649;SHT31;70112;45.624;11.760;2023-08-17T08:12:03;27.48;63.22
71649;SHT31;70112;45.624;11.760;2023-08-17T08:14:30;27.55;63.02
71649;SHT31;70112;45.624;11.760;2023-08-17T08:16:56;27.64;62.87
71649;SHT31;70112;45.624;11.760;2023-08-17T08:19:21;27.74;62.58
71649;SHT31;70112;45.624;11.760;2023-08-17T08:21:47;27.86;62.72
71649;SHT31;70112;45.624;11.760;2023-08-17T08:24:12;27.97;62.68
71649;SHT31;70112;45.624;11.760;2023-08-17T08:26:38;28.09;62.01
71649;SHT31;70112;45.624;11.760;2023-08-17T08:29:03;28.63;61.59
71649;SHT31;70112;45.624;11.760;2023-08-17T08:31:29;30.83;59.66
71649;SHT31;70112;45.624;11.760;2023-08-17T08:33:55;33.31;55.67
71649;SHT31;70112;45.624;11.760;2023-08-17T08:36:20;35.35;52.60
71649;SHT31;70112;45.624;11.760;2023-08-17T08:38:46;37.04;49.41
71649;SHT31;70112;45.624;11.760;2023-08-17T08:41:12;38.64;46.57
71649;SHT31;70112;45.624;11.760;2023-08-17T08:43:38;39.90;43.78
71649;SHT31;70112;45.624;11.760;2023-08-17T08:46:04;41.02;41.95
71649;SHT31;70112;45.624;11.760;2023-08-17T08:48:31;42.03;39.96
71649;SHT31;70112;45.624;11.760;2023-08-17T08:50:59;42.91;37.95
71649;SHT31;70112;45.624;11.760;2023-08-17T08:53:37;43.53;36.85
71649;SHT31;70112;45.624;11.760;2023-08-17T08:56:04;43.77;35.25
71649;SHT31;70112;45.624;11.760;2023-08-17T08:58:36;42.76;34.88
71649;SHT31;70112;45.624;11.760;2023-08-17T09:01:03;40.94;36.01
71649;SHT31;70112;45.624;11.760;2023-08-17T09:03:30;39.26;37.06
71649;SHT31;70112;45.624;11.760;2023-08-17T09:05:57;37.85;38.24
71649;SHT31;70112;45.624;11.760;2023-08-17T09:08:25;36.67;39.00
71649;SHT31;70112;45.624;11.760;2023-08-17T09:10:54;35.81;40.30
71649;SHT31;70112;45.624;11.760;2023-08-17T09:13:20;35.13;41.56
71649;SHT31;70112;45.624;11.760;2023-08-17T09:15:45;34.57;42.54
71649;SHT31;70112;45.624;11.760;2023-08-17T09:18:11;34.06;42.78
71649;SHT31;70112;45.624;11.760;2023-08-17T09:20:40;33.58;43.83
71649;SHT31;70112;45.624;11.760;2023-08-17T09:23:20;33.17;44.95
71649;SHT31;70112;45.624;11.760;2023-08-17T09:25:47;32.79;45.39
71649;SHT31;70112;45.624;11.760;2023-08-17T09:28:17;32.46;45.98
71649;SHT31;70112;45.624;11.760;2023-08-17T09:30:50;32.24;46.54
71649;SHT31;70112;45.624;11.760;2023-08-17T09:33:19;32.09;46.84
71649;SHT31;70112;45.624;11.760;2023-08-17T09:35:54;31.95;47.72
71649;SHT31;70112;45.624;11.760;2023-08-17T09:38:21;31.79;48.10
71649;SHT31;70112;45.624;11.760;2023-08-17T09:40:47;31.66;48.08
71649;SHT31;70112;45.624;11.760;2023-08-17T09:43:14;31.55;49.30
71649;SHT31;70112;45.624;11.760;2023-08-17T09:45:40;31.48;49.54
71649;SHT31;70112;45.624;11.760;2023-08-17T09:48:10;31.39;49.94
71649;SHT31;70112;45.624;11.760;2023-08-17T09:50:36;31.31;49.61
71649;SHT31;70112;45.624;11.760;2023-08-17T09:53:02;31.22;49.41
71649;SHT31;70112;45.624;11.760;2023-08-17T09:55:29;31.14;49.64
71649;SHT31;70112;45.624;11.760;2023-08-17T09:57:58;31.14;50.11
71649;SHT31;70112;45.624;11.760;2023-08-17T10:00:25;31.14;50.46
71649;SHT31;70112;45.624;11.760;2023-08-17T10:02:52;31.14;50.02
71649;SHT31;70112;45.624;11.760;2023-08-17T10:05:19;31.10;49.60
71649;SHT31;70112;45.624;11.760;2023-08-17T10:07:51;31.07;49.52
71649;SHT31;70112;45.624;11.760;2023-08-17T10:10:22;31.05;49.83
71649;SHT31;70112;45.624;11.760;2023-08-17T10:13:10;31.05;50.10
71649;SHT31;70112;45.624;11.760;2023-08-17T10:15:51;31.07;49.83
71649;SHT31;70112;45.624;11.760;2023-08-17T10:18:36;31.07;49.81
71649;SHT31;70112;45.624;11.760;2023-08-17T10:21:17;31.09;49.77
71649;SHT31;70112;45.624;11.760;2023-08-17T10:23:55;31.10;49.97
71649;SHT31;70112;45.624;11.760;2023-08-17T10:26:22;31.11;49.75
71649;SHT31;70112;45.624;11.760;2023-08-17T10:28:50;31.10;49.64
71649;SHT31;70112;45.624;11.760;2023-08-17T10:31:18;31.11;49.86
71649;SHT31;70112;45.624;11.760;2023-08-17T10:33:45;31.13;50.00
71649;SHT31;70112;45.624;11.760;2023-08-17T10:36:12;31.14;50.06
71649;SHT31;70112;45.624;11.760;2023-08-17T10:38:39;31.13;49.84
71649;SHT31;70112;45.624;11.760;2023-08-17T10:41:11;31.12;50.34
71649;SHT31;70112;45.624;11.760;2023-08-17T10:46:36;31.09;49.82
71649;SHT31;70112;45.624;11.760;2023-08-17T10:49:05;31.08;49.85
71649;SHT31;70112;45.624;11.760;2023-08-17T10:51:33;31.10;49.98
71649;SHT31;70112;45.624;11.760;2023-08-17T10:54:01;31.11;50.21
71649;SHT31;70112;45.624;11.760;2023-08-17T10:56:29;31.14;50.52
71649;SHT31;70112;45.624;11.760;2023-08-17T10:59:01;31.16;50.27
71649;SHT31;70112;45.624;11.760;2023-08-17T11:01:36;31.13;49.97
71649;SHT31;70112;45.624;11.760;2023-08-17T11:04:15;31.15;50.96
71649;SHT31;70112;45.624;11.760;2023-08-17T11:06:45;31.17;50.35
71649;SHT31;70112;45.624;11.760;2023-08-17T11:09:11;31.21;50.51
71649;SHT31;70112;45.624;11.760;2023-08-17T11:11:37;31.23;50.58
71649;SHT31;70112;45.624;11.760;2023-08-17T11:14:03;31.25;50.39
71649;SHT31;70112;45.624;11.760;2023-08-17T11:16:29;31.27;49.92
71649;SHT31;70112;45.624;11.760;2023-08-17T11:18:55;31.26;49.81
71649;SHT31;70112;45.624;11.760;2023-08-17T11:21:23;31.26;50.11
71649;SHT31;70112;45.624;11.760;2023-08-17T11:23:49;31.25;50.20
71649;SHT31;70112;45.624;11.760;2023-08-17T11:26:18;31.25;49.86
71649;SHT31;70112;45.624;11.760;2023-08-17T11:28:44;31.27;50.12
71649;SHT31;70112;45.624;11.760;2023-08-17T11:31:11;31.27;49.53
71649;SHT31;70112;45.624;11.760;2023-08-17T11:33:39;31.28;49.60
71649;SHT31;70112;45.624;11.760;2023-08-17T11:36:06;31.26;49.50
71649;SHT31;70112;45.624;11.760;2023-08-17T11:38:36;31.23;49.41
71649;SHT31;70112;45.624;11.760;2023-08-17T11:41:04;31.21;49.36
71649;SHT31;70112;45.624;11.760;2023-08-17T11:43:33;31.21;49.54
71649;SHT31;70112;45.624;11.760;2023-08-17T11:45:59;31.22;49.90
71649;SHT31;70112;45.624;11.760;2023-08-17T11:48:26;31.24;50.03
71649;SHT31;70112;45.624;11.760;2023-08-17T11:50:53;31.26;50.47
71649;SHT31;70112;45.624;11.760;2023-08-17T11:53:20;31.27;50.64
71649;SHT31;70112;45.624;11.760;2023-08-17T11:55:46;31.27;50.70
71649;SHT31;70112;45.624;11.760;2023-08-17T11:58:12;31.28;50.73
71649;SHT31;70112;45.624;11.760;2023-08-17T12:00:44;31.30;50.60
71649;SHT31;70112;45.624;11.760;2023-08-17T12:03:16;31.30;50.66
71649;SHT31;70112;45.624;11.760;2023-08-17T12:05:43;31.29;50.80
71649;SHT31;70112;45.624;11.760;2023-08-17T12:08:10;31.30;51.18
71649;SHT31;70112;45.624;11.760;2023-08-17T12:10:38;31.32;51.70
71649;SHT31;70112;45.624;11.760;2023-08-17T12:13:03;31.33;51.90
71649;SHT31;70112;45.624;11.760;2023-08-17T12:15:32;31.35;51.63
71649;SHT31;70112;45.624;11.760;2023-08-17T12:18:01;31.36;51.70
71649;SHT31;70112;45.624;11.760;2023-08-17T12:20:29;31.38;51.88
71649;SHT31;70112;45.624;11.760;2023-08-17T12:22:58;31.39;51.92
71649;SHT31;70112;45.624;11.760;2023-08-17T12:25:24;31.41;51.80
71649;SHT31;70112;45.624;11.760;2023-08-17T12:27:50;31.42;51.79
71649;SHT31;70112;45.624;11.760;2023-08-17T12:30:31;31.42;51.68
71649;SHT31;70112;45.624;11.760;2023-08-17T12:33:02;31.42;51.86
71649;SHT31;70112;45.624;11.760;2023-08-17T12:35:29;31.42;51.58
71649;SHT31;70112;45.624;11.760;2023-08-17T12:37:56;31.41;51.40
71649;SHT31;70112;45.624;11.760;2023-08-17T12:40:22;31.40;51.81
71649;SHT31;70112;45.624;11.760;2023-08-17T12:42:48;31.39;51.59
71649;SHT31;70112;45.624;11.760;2023-08-17T12:45:14;31.41;51.56
71649;SHT31;70112;45.624;11.760;2023-08-17T12:47:41;31.46;51.60
71649;SHT31;70112;45.624;11.760;2023-08-17T12:50:07;31.48;51.74
71649;SHT31;70112;45.624;11.760;2023-08-17T12:52:33;31.47;51.91
71649;SHT31;70112;45.624;11.760;2023-08-17T12:54:59;31.47;51.94
71649;SHT31;70112;45.624;11.760;2023-08-17T12:57:25;31.43;51.23
71649;SHT31;70112;45.624;11.760;2023-08-17T12:59:51;31.43;51.08
71649;SHT31;70112;45.624;11.760;2023-08-17T13:02:19;31.45;51.23
71649;SHT31;70112;45.624;11.760;2023-08-17T13:04:46;31.46;51.58
71649;SHT31;70112;45.624;11.760;2023-08-17T13:07:11;31.48;51.77
71649;SHT31;70112;45.624;11.760;2023-08-17T13:09:37;31.50;51.71
71649;SHT31;70112;45.624;11.760;2023-08-17T13:12:02;31.52;51.32
71649;SHT31;70112;45.624;11.760;2023-08-17T13:14:28;31.50;51.37
71649;SHT31;70112;45.624;11.760;2023-08-17T13:16:53;31.50;51.74
71649;SHT31;70112;45.624;11.760;2023-08-17T13:19:19;31.51;51.38
71649;SHT31;70112;45.624;11.760;2023-08-17T13:21:44;31.50;50.91
71649;SHT31;70112;45.624;11.760;2023-08-17T13:24:10;31.48;50.79
71649;SHT31;70112;45.624;11.760;2023-08-17T13:26:38;31.46;50.13
71649;SHT31;70112;45.624;11.760;2023-08-17T13:29:03;31.45;50.33
71649;SHT31;70112;45.624;11.760;2023-08-17T13:31:29;31.43;50.28
71649;SHT31;70112;45.624;11.760;2023-08-17T13:33:55;31.45;50.23
71649;SHT31;70112;45.624;11.760;2023-08-17T13:36:20;31.47;50.29
71649;SHT31;70112;45.624;11.760;2023-08-17T13:38:46;31.47;50.63
71649;SHT31;70112;45.624;11.760;2023-08-17T13:41:11;31.47;50.67
71649;SHT31;70112;45.624;11.760;2023-08-17T13:43:38;31.45;50.96
71649;SHT31;70112;45.624;11.760;2023-08-17T13:46:04;31.46;51.59
71649;SHT31;70112;45.624;11.760;2023-08-17T13:48:30;31.47;51.56
71649;SHT31;70112;45.624;11.760;2023-08-17T13:50:55;31.50;51.45
71649;SHT31;70112;45.624;11.760;2023-08-17T13:53:21;31.51;51.01
71649;SHT31;70112;45.624;11.760;2023-08-17T13:55:46;31.50;50.97
71649;SHT31;70112;45.624;11.760;2023-08-17T13:58:12;31.52;51.05
71649;SHT31;70112;45.624;11.760;2023-08-17T14:00:37;31.54;51.06
71649;SHT31;70112;45.624;11.760;2023-08-17T14:03:03;31.55;51.03
71649;SHT31;70112;45.624;11.760;2023-08-17T14:05:29;31.52;50.90
71649;SHT31;70112;45.624;11.760;2023-08-17T14:07:55;31.51;51.88
71649;SHT31;70112;45.624;11.760;2023-08-17T14:10:20;31.51;51.69
71649;SHT31;70112;45.624;11.760;2023-08-17T14:12:46;31.49;51.11
71649;SHT31;70112;45.624;11.760;2023-08-17T14:15:11;31.49;51.24
71649;SHT31;70112;45.624;11.760;2023-08-17T14:17:37;31.47;51.08
71649;SHT31;70112;45.624;11.760;2023-08-17T14:20:03;31.46;51.18
71649;SHT31;70112;45.624;11.760;2023-08-17T14:22:29;31.45;51.17
71649;SHT31;70112;45.624;11.760;2023-08-17T14:24:55;31.45;51.01
71649;SHT31;70112;45.624;11.760;2023-08-17T14:27:21;31.44;50.66
71649;SHT31;70112;45.624;11.760;2023-08-17T14:29:47;31.41;50.95
71649;SHT31;70112;45.624;11.760;2023-08-17T14:32:12;31.40;51.32
71649;SHT31;70112;45.624;11.760;2023-08-17T14:34:38;31.39;51.52
71649;SHT31;70112;45.624;11.760;2023-08-17T14:37:03;31.36;51.55
71649;SHT31;70112;45.624;11.760;2023-08-17T14:39:29;31.34;51.66
71649;SHT31;70112;45.624;11.760;2023-08-17T14:41:54;31.31;51.20
71649;SHT31;70112;45.624;11.760;2023-08-17T14:44:20;31.26;50.71
71649;SHT31;70112;45.624;11.760;2023-08-17T14:46:46;31.25;50.99
71649;SHT31;70112;45.624;11.760;2023-08-17T14:49:11;31.24;51.04
71649;SHT31;70112;45.624;11.760;2023-08-17T14:51:38;31.22;51.23
71649;SHT31;70112;45.624;11.760;2023-08-17T14:54:08;31.21;51.58
71649;SHT31;70112;45.624;11.760;2023-08-17T14:56:34;31.18;51.89
71649;SHT31;70112;45.624;11.760;2023-08-17T14:58:59;31.15;52.14
71649;SHT31;70112;45.624;11.760;2023-08-17T15:01:26;31.12;52.16
71649;SHT31;70112;45.624;11.760;2023-08-17T15:03:52;31.11;52.31
71649;SHT31;70112;45.624;11.760;2023-08-17T15:06:18;31.09;52.99
71649;SHT31;70112;45.624;11.760;2023-08-17T15:08:48;31.03;53.55
71649;SHT31;70112;45.624;11.760;2023-08-17T15:11:14;31.00;53.98
71649;SHT31;70112;45.624;11.760;2023-08-17T15:13:40;30.97;54.39
71649;SHT31;70112;45.624;11.760;2023-08-17T15:16:05;30.94;54.63
71649;SHT31;70112;45.624;11.760;2023-08-17T15:18:32;30.92;54.51